Terminal Aerodrome Forecast
Issued by NWS

Home | Current Version | Previous Version | Graphics & Text | Print | Product List | Glossary On
Versions: 1 2 3 4 5 6 7 8 9 10 11 12 13 14 15 16 17
953
FTUS43 KOAX 191120
TAFCDR
TAF
KCDR 191120Z 1912/2012 04012KT 4SM -SN BR OVC019
      TEMPO 1912/1916 3/4SM -SN BR OVC009
     FM191600 05011KT 1SM -SN OVC015
     FM200100 01008KT 1SM -SN OVC015=

USA.gov is the U.S. government's official web portal to all federal, state and local government web resources and services.